Time;durP1;ratioP1;P1;durP2;ratioP2;P2;SDS_P1;SDS_P2;PMS_P1;PMS_P2;Temp;Humidity;BMP_temperature;BMP_pressure;BME280_temperature;BME280_humidity;BME280_pressure;Samples;Min_cycle;Max_cycle;Signal;HPM_P1;HPM_P2
2022/10/19 00:02:07;;;;;;;28.58;19.08;;;205.00;2252.80;;;;;;5056292;28;20032;-87
2022/10/19 00:04:33;;;;;;;31.42;17.90;;;204.80;2252.80;;;;;;5056677;28;20497;-87
2022/10/19 00:06:59;;;;;;;30.17;19.55;;;204.80;2252.80;;;;;;5057234;28;20025;-87
2022/10/19 00:09:25;;;;;;;26.73;18.20;;;179.80;2252.80;;;;;;5055973;28;20028;-87
2022/10/19 00:11:51;;;;;;;32.38;20.08;;;180.10;2252.80;;;;;;5055926;28;20039;-87
2022/10/19 00:14:19;;;;;;;30.90;19.85;;;179.70;2252.80;;;;;;5055883;28;20028;-82
2022/10/19 00:16:47;;;;;;;29.67;19.33;;;179.90;2252.80;;;;;;5055962;28;20036;-85
2022/10/19 00:19:31;;;;;;;30.65;19.15;;;179.90;2252.80;;;;;;5051418;28;20028;-84
2022/10/19 00:21:57;;;;;;;47.65;27.45;;;180.00;2252.80;;;;;;5055540;28;20091;-87
2022/10/19 00:24:23;;;;;;;44.65;26.73;;;179.90;2252.80;;;;;;5054973;28;20470;-86
2022/10/19 00:26:48;;;;;;;67.38;36.70;;;179.90;2252.80;;;;;;5054991;28;20059;-87
2022/10/19 00:29:15;;;;;;;72.13;37.33;;;179.90;2252.80;;;;;;5055898;28;20041;-86
2022/10/19 00:31:41;;;;;;;78.75;43.70;;;180.10;2252.80;;;;;;5057257;28;20025;-86
2022/10/19 00:34:08;;;;;;;45.47;26.25;;;204.80;2252.80;;;;;;5056140;28;20025;-86
2022/10/19 00:36:40;;;;;;;23.63;16.02;;;204.80;2252.80;;;;;;5055674;28;20029;-85
2022/10/19 00:39:11;;;;;;;27.57;16.97;;;204.90;2252.80;;;;;;5055502;28;20024;-86
2022/10/19 00:41:37;;;;;;;33.88;19.95;;;204.80;2252.80;;;;;;5055150;28;20057;-87
2022/10/19 00:44:05;;;;;;;29.60;18.60;;;205.00;2252.80;;;;;;5055490;28;20033;-87
2022/10/19 00:46:34;;;;;;;27.70;15.40;;;204.80;2252.80;;;;;;5055316;28;20025;-86
2022/10/19 00:49:23;;;;;;;26.27;16.13;;;204.90;2252.80;;;;;;5056420;28;20029;-86
2022/10/19 00:52:01;;;;;;;40.55;22.77;;;204.90;2252.80;;;;;;5055213;28;20467;-86
2022/10/19 00:54:28;;;;;;;28.13;19.17;;;180.10;2252.80;;;;;;5055164;28;20057;-86
2022/10/19 00:56:56;;;;;;;23.88;16.67;;;180.10;2252.80;;;;;;5055218;28;20021;-86
2022/10/19 00:59:24;;;;;;;28.23;16.83;;;179.70;2252.80;;;;;;5055103;28;20025;-85
2022/10/19 01:01:51;;;;;;;28.90;17.88;;;179.90;2252.80;;;;;;5054712;28;20115;-87
2022/10/19 01:04:19;;;;;;;22.35;15.65;;;180.00;2252.80;;;;;;5054870;28;20540;-86
2022/10/19 01:06:44;;;;;;;21.52;15.13;;;180.10;2252.80;;;;;;5054741;28;20124;-87
2022/10/19 01:09:10;;;;;;;27.27;15.57;;;180.00;2252.80;;;;;;5054913;28;20060;-86
2022/10/19 01:12:00;;;;;;;24.55;13.52;;;179.80;2252.80;;;;;;5054811;28;20025;-87
2022/10/19 01:14:47;;;;;;;21.73;14.32;;;179.70;2252.80;;;;;;5054510;28;20033;-86
2022/10/19 01:17:43;;;;;;;23.52;15.27;;;179.90;2252.80;;;;;;5054778;28;20478;-86
2022/10/19 01:20:31;;;;;;;27.08;16.13;;;179.60;2252.80;;;;;;5054516;28;20021;-87
2022/10/19 01:23:16;;;;;;;26.83;15.52;;;179.50;2252.80;;;;;;5054495;28;20025;-87
2022/10/19 01:25:54;;;;;;;24.50;15.63;;;179.70;2252.80;;;;;;5054521;28;20029;-87
2022/10/19 01:28:43;;;;;;;22.90;15.90;;;179.90;2252.80;;;;;;5054641;28;20025;-87
2022/10/19 01:31:38;;;;;;;28.35;16.98;;;179.90;2252.80;;;;;;5054165;28;20048;-87
2022/10/19 01:34:04;;;;;;;20.40;13.68;;;179.60;2252.80;;;;;;5054751;28;20044;-88
2022/10/19 01:36:46;;;;;;;28.75;15.75;;;179.50;2252.80;;;;;;5054165;28;20025;-88
2022/10/19 01:39:37;;;;;;;20.67;14.25;;;154.40;2252.80;;;;;;5054506;28;20025;-87
2022/10/19 01:42:18;;;;;;;20.20;12.43;;;154.50;2252.80;;;;;;5054252;28;20021;-87
2022/10/19 01:44:44;;;;;;;19.30;12.77;;;179.30;2252.80;;;;;;5054285;28;20036;-90
2022/10/19 01:47:21;;;;;;;17.92;11.70;;;179.20;2252.80;;;;;;5054289;28;20036;-88
2022/10/19 01:49:54;;;;;;;22.60;12.75;;;179.20;2252.80;;;;;;5054101;28;20575;-88
2022/10/19 01:52:22;;;;;;;21.55;12.90;;;154.50;2252.80;;;;;;5054240;28;20037;-87
2022/10/19 01:54:53;;;;;;;22.65;14.13;;;154.50;2252.80;;;;;;5055180;28;20472;-87
2022/10/19 01:57:25;;;;;;;21.70;13.63;;;154.50;2252.80;;;;;;5054156;28;20454;-88
2022/10/19 01:59:52;;;;;;;20.13;12.65;;;179.20;2252.80;;;;;;5053855;28;20059;-87
2022/10/19 02:02:20;;;;;;;19.20;13.20;;;179.30;2252.80;;;;;;5053548;28;20029;-87
2022/10/19 02:04:49;;;;;;;21.23;13.70;;;179.40;2252.80;;;;;;5054832;28;20386;-87
2022/10/19 02:07:15;;;;;;;25.45;15.23;;;154.50;2252.80;;;;;;5053879;28;20063;-87
2022/10/19 02:09:41;;;;;;;21.55;13.98;;;179.30;2252.80;;;;;;5053941;28;20079;-87
2022/10/19 02:12:09;;;;;;;26.73;14.27;;;179.40;2252.80;;;;;;5053650;28;20520;-88
2022/10/19 02:14:46;;;;;;;20.63;13.82;;;179.50;2252.80;;;;;;5053951;28;20033;-87
2022/10/19 02:17:44;;;;;;;27.02;16.95;;;179.60;2252.80;;;;;;5053927;28;20024;-87
2022/10/19 02:20:11;;;;;;;20.90;14.65;;;179.50;2252.80;;;;;;5076049;28;20064;-87
2022/10/19 02:22:37;;;;;;;20.88;14.45;;;179.30;2252.80;;;;;;5053775;28;20021;-87
2022/10/19 02:25:03;;;;;;;25.08;13.70;;;179.20;2252.80;;;;;;5053245;28;20045;-88
2022/10/19 02:27:29;;;;;;;23.73;13.73;;;179.30;2252.80;;;;;;5053306;28;20481;-87
2022/10/19 02:29:55;;;;;;;22.67;13.43;;;179.20;2252.80;;;;;;5053615;28;20048;-88
2022/10/19 02:32:21;;;;;;;19.33;12.70;;;179.30;2252.80;;;;;;5053470;28;20024;-86
2022/10/19 02:34:47;;;;;;;17.67;13.77;;;154.50;2252.80;;;;;;5053319;28;20032;-88
2022/10/19 02:37:13;;;;;;;20.27;14.02;;;154.10;2252.80;;;;;;5053370;28;20433;-88
2022/10/19 02:39:39;;;;;;;21.65;13.75;;;153.90;2252.80;;;;;;5053223;28;20053;-87
2022/10/19 02:42:21;;;;;;;24.33;13.30;;;153.90;2252.80;;;;;;5053453;28;20075;-90
2022/10/19 02:45:07;;;;;;;26.55;14.50;;;154.00;2252.80;;;;;;5053337;28;20041;-91
2022/10/19 02:47:43;;;;;;;22.45;12.75;;;153.90;2252.80;;;;;;5053037;28;20091;-90
2022/10/19 02:50:10;;;;;;;15.85;11.43;;;154.00;2252.80;;;;;;5046233;28;20029;-91
2022/10/19 02:52:37;;;;;;;24.15;14.00;;;154.00;2252.80;;;;;;5049669;28;20028;-87
2022/10/19 02:55:03;;;;;;;20.80;12.10;;;154.40;2252.80;;;;;;5049174;28;20034;-88
2022/10/19 02:57:31;;;;;;;21.08;12.68;;;154.10;2252.80;;;;;;5049793;28;20029;-90
2022/10/19 02:59:57;;;;;;;18.88;12.18;;;153.90;2252.80;;;;;;5049549;28;20475;-90
2022/10/19 03:02:23;;;;;;;17.33;12.85;;;153.90;2252.80;;;;;;5049635;28;20386;-89
2022/10/19 03:04:49;;;;;;;17.90;12.43;;;153.90;2252.80;;;;;;5049455;28;20038;-90
2022/10/19 03:07:17;;;;;;;19.42;12.55;;;153.80;2252.80;;;;;;5049544;28;20036;-90
2022/10/19 03:09:43;;;;;;;19.35;12.10;;;154.00;2252.80;;;;;;5033908;28;20047;-91
2022/10/19 03:12:11;;;;;;;19.27;12.38;;;154.10;2252.80;;;;;;5049444;28;20026;-88
2022/10/19 03:14:36;;;;;;;16.70;11.65;;;153.90;2252.80;;;;;;5049648;28;20025;-89
2022/10/19 03:17:03;;;;;;;20.20;13.55;;;154.10;2252.80;;;;;;5053544;28;20037;-89
2022/10/19 03:19:30;;;;;;;19.85;12.23;;;154.00;2252.80;;;;;;5053275;28;20026;-89
2022/10/19 03:21:56;;;;;;;20.98;12.45;;;154.10;2252.80;;;;;;5055723;28;20075;-89
2022/10/19 03:24:22;;;;;;;21.60;13.52;;;154.20;2252.80;;;;;;5056487;28;20037;-87
2022/10/19 03:26:48;;;;;;;21.63;13.52;;;154.00;2252.80;;;;;;5056032;28;20490;-89
2022/10/19 03:29:14;;;;;;;19.88;13.25;;;154.10;2252.80;;;;;;5056331;28;20025;-88
2022/10/19 03:31:40;;;;;;;19.98;13.48;;;154.00;2252.80;;;;;;5056819;28;20125;-88
2022/10/19 03:34:06;;;;;;;22.88;14.10;;;154.00;2252.80;;;;;;5056856;28;20037;-88
2022/10/19 03:36:34;;;;;;;21.50;13.25;;;154.20;2252.80;;;;;;5056366;28;20036;-88
2022/10/19 03:39:03;;;;;;;17.65;13.02;;;154.10;2252.80;;;;;;5057766;28;20100;-89
2022/10/19 03:41:34;;;;;;;21.48;14.75;;;154.20;2252.80;;;;;;5060194;28;20146;-86
2022/10/19 03:44:00;;;;;;;20.60;13.43;;;154.20;2252.80;;;;;;5058568;28;20503;-87
2022/10/19 03:46:26;;;;;;;19.77;13.23;;;154.10;2252.80;;;;;;5056533;28;20063;-86
2022/10/19 03:48:52;;;;;;;69.78;39.25;;;154.10;2252.80;;;;;;5056338;28;20482;-86
2022/10/19 03:51:23;;;;;;;47.38;25.13;;;154.00;2252.80;;;;;;5056440;28;20025;-87
2022/10/19 03:53:54;;;;;;;47.35;26.45;;;128.90;2252.80;;;;;;5056165;28;20033;-89
2022/10/19 03:56:22;;;;;;;30.88;18.00;;;128.90;2252.80;;;;;;5056257;28;20036;-89
2022/10/19 03:58:49;;;;;;;30.58;16.60;;;;;;;;;;5056223;28;20025;-90
2022/10/19 04:01:15;;;;;;;21.67;15.25;;;;;;;;;;5056192;28;20021;-89
2022/10/19 04:03:41;;;;;;;28.05;18.05;;;;;;;;;;5055952;28;20029;-89
2022/10/19 04:06:09;;;;;;;28.60;16.27;;;;;;;;;;5055706;28;20025;-88
2022/10/19 04:08:36;;;;;;;55.00;31.15;;;;;;;;;;5055958;28;20477;-89
2022/10/19 04:11:06;;;;;;;39.47;24.13;;;;;;;;;;5055677;28;20079;-89
2022/10/19 04:13:33;;;;;;;46.33;25.83;;;;;;;;;;5056092;28;20036;-90
2022/10/19 04:15:59;;;;;;;55.67;34.47;;;;;;;;;;5056248;28;20490;-88
2022/10/19 04:18:25;;;;;;;41.75;29.42;;;;;;;;;;5055693;28;20067;-89
2022/10/19 04:21:02;;;;;;;40.30;27.10;;;;;;;;;;5055915;28;20028;-90
2022/10/19 04:23:29;;;;;;;33.78;18.55;;;;;;;;;;5055900;28;20563;-89
2022/10/19 04:26:13;;;;;;;22.23;15.75;;;;;;;;;;5055308;28;20117;-89
2022/10/19 04:28:39;;;;;;;25.05;15.77;;;;;;;;;;5055821;28;20017;-88
2022/10/19 04:31:06;;;;;;;30.90;17.80;;;;;;;;;;5055367;28;20048;-88
2022/10/19 04:33:33;;;;;;;32.92;17.52;;;;;;;;;;5055616;28;20028;-89
2022/10/19 04:36:04;;;;;;;33.92;19.92;;;;;;;;;;5055881;28;20035;-89
2022/10/19 04:38:30;;;;;;;34.13;21.98;;;;;;;;;;5055508;28;20497;-89
2022/10/19 04:41:01;;;;;;;34.80;21.98;;;;;;;;;;5055494;28;20431;-88
2022/10/19 04:43:27;;;;;;;32.67;22.52;;;;;;;;;;5055377;28;20029;-88
2022/10/19 04:45:53;;;;;;;35.72;25.02;;;;;;;;;;5054910;28;20513;-85
2022/10/19 04:48:19;;;;;;;35.25;22.73;;;;;;;;;;5055070;28;20025;-85
2022/10/19 04:50:45;;;;;;;25.52;18.08;;;;;;;;;;5054797;28;20029;-89
2022/10/19 04:53:11;;;;;;;31.23;19.70;;;;;;;;;;5055408;28;20025;-89
2022/10/19 04:55:41;;;;;;;31.42;20.67;;;;;;;;;;5055366;28;20032;-88
2022/10/19 04:58:08;;;;;;;30.95;21.88;;;;;;;;;;5055330;28;20029;-88
2022/10/19 05:00:34;;;;;;;60.92;36.78;;;;;;;;;;5054922;28;20025;-89
2022/10/19 05:03:00;;;;;;;67.40;39.92;;;;;;;;;;5055179;28;20028;-90
2022/10/19 05:05:26;;;;;;;38.30;21.48;;;;;;;;;;5055088;28;20112;-89
2022/10/19 05:07:52;;;;;;;32.05;20.92;;;;;;;;;;5055383;28;20098;-89
2022/10/19 05:10:18;;;;;;;30.85;18.73;;;;;;;;;;5056490;28;20028;-89
2022/10/19 05:12:44;;;;;;;31.90;20.92;;;;;;;;;;5055442;28;20437;-89
2022/10/19 05:15:11;;;;;;;39.08;24.73;;;;;;;;;;5055229;28;20355;-90
2022/10/19 05:17:37;;;;;;;34.17;21.60;;;;;;;;;;5055257;28;20029;-89
2022/10/19 05:20:03;;;;;;;38.92;25.23;;;;;;;;;;5054896;28;20078;-89
2022/10/19 05:22:29;;;;;;;41.83;23.33;;;;;;;;;;5055348;28;20056;-89
2022/10/19 05:24:55;;;;;;;38.30;23.20;;;;;;;;;;5054830;28;20033;-90
2022/10/19 05:27:21;;;;;;;41.08;23.95;;;;;;;;;;5054880;28;20017;-89
2022/10/19 05:29:48;;;;;;;38.15;22.77;;;;;;;;;;5054715;28;20080;-90
2022/10/19 05:32:14;;;;;;;35.35;23.23;;;;;;;;;;5055039;28;20025;-89
2022/10/19 05:34:40;;;;;;;59.60;35.15;;;;;;;;;;5054462;28;20032;-89
2022/10/19 05:37:06;;;;;;;62.67;32.08;;;;;;;;;;5054247;28;20363;-89
2022/10/19 05:39:33;;;;;;;49.03;29.83;;;;;;;;;;5054319;28;20021;-90
2022/10/19 05:41:59;;;;;;;47.60;28.83;;;;;;;;;;5054451;28;20483;-90
2022/10/19 05:44:25;;;;;;;40.75;25.27;;;;;;;;;;5054389;28;20140;-89
2022/10/19 05:46:51;;;;;;;46.88;26.63;;;154.40;2252.80;;;;;;5058207;28;20028;-90
2022/10/19 05:49:18;;;;;;;43.53;27.58;;;154.30;2252.80;;;;;;5062150;28;20025;-88
2022/10/19 05:51:44;;;;;;;68.68;38.80;;;154.20;2252.80;;;;;;5061829;28;20124;-88
2022/10/19 05:54:11;;;;;;;53.05;30.58;;;154.40;2252.80;;;;;;5060599;28;20450;-88
2022/10/19 05:56:38;;;;;;;46.45;27.23;;;179.30;2252.80;;;;;;5060492;28;20029;-87
2022/10/19 05:59:05;;;;;;;47.20;27.55;;;179.20;2252.80;;;;;;5058066;28;20029;-88
2022/10/19 06:01:32;;;;;;;38.40;25.65;;;179.30;2252.80;;;;;;5058548;28;20631;-89
2022/10/19 06:03:59;;;;;;;35.25;23.20;;;154.50;2252.80;;;;;;5059854;28;20051;-88
2022/10/19 06:06:25;;;;;;;39.78;26.52;;;179.60;2252.80;;;;;;5057359;28;20171;-89
2022/10/19 06:08:53;;;;;;;50.90;34.33;;;179.40;2252.80;;;;;;5057163;28;20032;-88
2022/10/19 06:11:27;;;;;;;53.90;32.28;;;179.30;2252.80;;;;;;5055051;28;20520;-88
2022/10/19 06:13:55;;;;;;;72.90;44.45;;;179.20;2252.80;;;;;;5067307;28;20037;-84
2022/10/19 06:16:23;;;;;;;63.10;37.70;;;154.50;2252.80;;;;;;5055373;28;20030;-88
2022/10/19 06:18:49;;;;;;;56.60;34.33;;;154.50;2252.80;;;;;;5057637;28;20016;-89
2022/10/19 06:21:18;;;;;;;39.17;22.73;;;179.30;2252.80;;;;;;5047442;28;20030;-89
2022/10/19 06:23:48;;;;;;;34.72;19.75;;;179.40;2252.80;;;;;;5035632;28;20033;-89
2022/10/19 06:26:14;;;;;;;32.78;21.77;;;179.40;2252.80;;;;;;5033713;28;20056;-88
2022/10/19 06:28:42;;;;;;;33.78;20.95;;;179.60;2252.80;;;;;;5033804;28;20025;-89
2022/10/19 06:31:08;;;;;;;48.42;26.10;;;179.60;2252.80;;;;;;5034264;28;20049;-86
2022/10/19 06:33:34;;;;;;;41.67;25.70;;;179.80;2252.80;;;;;;5033427;28;20029;-86
2022/10/19 06:36:13;;;;;;;36.40;21.92;;;179.90;2252.80;;;;;;5033549;28;20029;-86
2022/10/19 06:38:39;;;;;;;46.38;20.80;;;180.00;2252.80;;;;;;5017700;28;20564;-85
2022/10/19 06:41:05;;;;;;;34.03;20.25;;;180.00;2252.80;;;;;;5033484;28;20079;-85
2022/10/19 06:43:32;;;;;;;37.20;23.27;;;180.00;2252.80;;;;;;5036488;28;20037;-87
2022/10/19 06:45:58;;;;;;;39.83;26.05;;;180.00;2252.80;;;;;;5033316;28;20037;-85
2022/10/19 06:48:24;;;;;;;41.38;24.33;;;154.30;2252.80;;;;;;5032685;28;20075;-85
2022/10/19 06:50:57;;;;;;;33.25;21.13;;;179.80;2252.80;;;;;;5036016;28;20105;-85
2022/10/19 06:53:23;;;;;;;36.22;21.95;;;179.90;2252.80;;;;;;5036929;28;20044;-85
2022/10/19 06:55:49;;;;;;;37.70;21.83;;;179.70;2252.80;;;;;;5039259;28;20383;-86
2022/10/19 06:58:15;;;;;;;29.95;19.95;;;179.90;2252.80;;;;;;5053046;28;20426;-85
2022/10/19 07:00:41;;;;;;;31.05;20.92;;;179.90;2252.80;;;;;;5053133;28;20033;-86
2022/10/19 07:03:06;;;;;;;28.98;19.85;;;204.80;2252.80;;;;;;5052709;28;20474;-85
2022/10/19 07:05:32;;;;;;;28.98;17.80;;;204.90;2252.80;;;;;;5053090;28;20024;-86
2022/10/19 07:07:58;;;;;;;28.65;18.52;;;204.90;2252.80;;;;;;5052982;28;20060;-86
2022/10/19 07:10:24;;;;;;;29.88;18.58;;;205.10;2252.80;;;;;;5052892;28;20031;-86
2022/10/19 07:12:50;;;;;;;27.05;18.15;;;205.20;2252.80;;;;;;5052878;28;20064;-86
2022/10/19 07:15:16;;;;;;;30.65;18.52;;;205.30;2252.80;;;;;;5052671;28;20082;-86
2022/10/19 07:17:42;;;;;;;28.95;18.90;;;205.40;2252.80;;;;;;5052936;28;20455;-86
2022/10/19 07:20:09;;;;;;;25.10;16.75;;;205.50;2252.80;;;;;;5052764;28;20124;-86
2022/10/19 07:22:35;;;;;;;26.83;16.92;;;205.50;2252.80;;;;;;5053599;28;20025;-86
2022/10/19 07:25:01;;;;;;;29.33;18.23;;;205.60;2252.80;;;;;;5053442;28;20037;-86
2022/10/19 07:27:27;;;;;;;38.30;23.88;;;205.70;2252.80;;;;;;5052431;28;20052;-85
2022/10/19 07:29:53;;;;;;;29.33;18.85;;;230.40;2252.80;;;;;;5052085;28;20053;-79
2022/10/19 07:32:19;;;;;;;31.67;19.02;;;230.40;2252.80;;;;;;5052153;28;20122;-86
2022/10/19 07:34:45;;;;;;;34.13;19.52;;;230.60;2252.80;;;;;;5052424;28;20029;-82
2022/10/19 07:37:10;;;;;;;30.00;18.48;;;230.60;2252.80;;;;;;5051889;28;20533;-79
2022/10/19 07:39:36;;;;;;;21.65;14.10;;;230.70;2252.80;;;;;;5052331;28;20125;-83
2022/10/19 07:42:02;;;;;;;23.42;14.30;;;230.70;2252.80;;;;;;5053359;28;20097;-84
2022/10/19 07:44:28;;;;;;;31.17;17.90;;;230.80;2252.80;;;;;;5052214;28;20468;-81
2022/10/19 07:46:53;;;;;;;22.38;17.08;;;230.90;2252.80;;;;;;5052202;28;20043;-86
2022/10/19 07:49:19;;;;;;;26.83;17.10;;;230.90;2252.80;;;;;;5052994;28;20077;-81
2022/10/19 07:51:46;;;;;;;29.50;16.48;;;231.20;2252.80;;;;;;5044296;28;20413;-82
2022/10/19 07:54:12;;;;;;;22.95;14.75;;;231.20;2252.80;;;;;;5031802;28;20030;-80
2022/10/19 07:56:38;;;;;;;20.02;14.82;;;231.20;2252.80;;;;;;5031111;28;20052;-81
2022/10/19 07:59:04;;;;;;;26.25;15.63;;;231.20;2252.80;;;;;;5032797;28;20454;-81
2022/10/19 08:01:35;;;;;;;31.27;18.48;;;231.30;2252.80;;;;;;5033833;28;20051;-80
2022/10/19 08:04:01;;;;;;;30.98;17.95;;;231.30;2252.80;;;;;;5035397;28;20036;-81
2022/10/19 08:06:27;;;;;;;23.52;17.05;;;256.00;2252.80;;;;;;5035647;28;20116;-82
2022/10/19 08:08:54;;;;;;;23.23;14.57;;;256.20;2252.80;;;;;;5035742;28;20025;-82
2022/10/19 08:11:24;;;;;;;26.40;14.50;;;256.30;2252.80;;;;;;5035398;28;20493;-82
2022/10/19 08:13:51;;;;;;;16.27;12.85;;;256.50;2252.80;;;;;;5035541;28;20221;-84
2022/10/19 08:16:25;;;;;;;20.58;14.82;;;256.70;2252.80;;;;;;5035406;28;20029;-80
2022/10/19 08:18:54;;;;;;;23.17;13.85;;;256.60;2252.80;;;;;;5035059;28;20026;-85
2022/10/19 08:21:20;;;;;;;20.13;13.93;;;256.70;2252.80;;;;;;5035292;28;20021;-83
2022/10/19 08:23:46;;;;;;;23.50;13.32;;;256.80;2252.80;;;;;;5036203;28;20497;-83
2022/10/19 08:26:12;;;;;;;20.73;14.23;;;256.90;2252.80;;;;;;5034876;28;20021;-83
2022/10/19 08:28:38;;;;;;;22.77;15.38;;;281.70;2278.40;;;;;;5035073;28;20025;-86
2022/10/19 08:31:15;;;;;;;29.55;18.23;;;281.70;2278.40;;;;;;5034856;28;20127;-84
2022/10/19 08:33:41;;;;;;;23.83;16.23;;;281.90;2278.40;;;;;;5034816;28;20033;-84
2022/10/19 08:36:09;;;;;;;26.60;18.35;;;282.10;2278.40;;;;;;5035046;28;20087;-83
2022/10/19 08:38:36;;;;;;;26.90;15.27;;;282.20;2278.40;;;;;;5034943;28;20088;-82
2022/10/19 08:41:20;;;;;;;22.25;15.48;;;282.50;2278.40;;;;;;5034710;28;20458;-83
2022/10/19 08:43:58;;;;;;;24.50;17.80;;;282.50;2278.40;;;;;;5035001;28;20041;-81
2022/10/19 08:46:48;;;;;;;25.98;15.18;;;307.20;2304.00;;;;;;5035176;28;20040;-81
2022/10/19 08:49:22;;;;;;;24.70;17.50;;;307.30;2304.00;;;;;;5054754;28;20029;-83
2022/10/19 08:51:50;;;;;;;20.60;15.70;;;;;;;;;;5054810;28;20398;-83
2022/10/19 08:54:17;;;;;;;21.50;16.80;;;;;;;;;;5055789;28;20029;-84
2022/10/19 08:56:48;;;;;;;25.00;16.27;;;;;;;;;;5055417;28;20110;-83
2022/10/19 08:59:29;;;;;;;23.83;14.60;;;;;;;;;;5054442;28;20021;-81
2022/10/19 09:02:04;;;;;;;22.88;15.20;;;;;;;;;;5055380;28;20021;-81
2022/10/19 09:04:46;;;;;;;19.20;14.52;;;332.80;2329.60;;;;;;5055602;28;20036;-83
2022/10/19 09:07:23;;;;;;;19.10;15.45;;;332.90;2329.60;;;;;;5053843;28;20029;-82
2022/10/19 09:10:12;;;;;;;18.98;14.73;;;332.90;2329.60;;;;;;5054252;28;20032;-80
2022/10/19 09:12:50;;;;;;;23.70;14.85;;;;;;;;;;5044539;28;20029;-82
2022/10/19 09:15:25;;;;;;;28.10;18.33;;;333.10;2329.60;;;;;;5053024;28;20029;-79
2022/10/19 09:17:51;;;;;;;24.05;17.33;;;333.10;2329.60;;;;;;5035645;28;20033;-81
2022/10/19 09:20:18;;;;;;;24.30;15.55;;;333.20;2329.60;;;;;;5054408;28;20025;-79
2022/10/19 09:22:45;;;;;;;22.27;14.65;;;333.40;2329.60;;;;;;5051487;28;20469;-79
2022/10/19 09:25:20;;;;;;;23.10;14.10;;;333.50;2329.60;;;;;;5053407;28;20608;-81
2022/10/19 09:27:48;;;;;;;18.33;13.65;;;;;;;;;;5055272;28;20025;-78
2022/10/19 09:30:19;;;;;;;19.42;13.43;;;;;;;;;;5053969;28;20049;-81
2022/10/19 09:32:46;;;;;;;23.67;16.55;;;;;;;;;;5053789;28;20433;-82
2022/10/19 09:35:15;;;;;;;21.58;14.48;;;;;;;;;;5053733;28;20029;-81
2022/10/19 09:37:44;;;;;;;20.88;14.23;;;;;;;;;;5053159;28;20032;-80
2022/10/19 09:40:17;;;;;;;17.73;13.35;;;358.70;2329.60;;;;;;5053337;28;20021;-78
2022/10/19 09:42:44;;;;;;;17.90;13.05;;;;;;;;;;5053174;28;20024;-78
2022/10/19 09:45:21;;;;;;;18.58;12.90;;;358.80;2329.60;;;;;;5053325;28;20054;-78
2022/10/19 09:47:47;;;;;;;22.50;13.77;;;358.80;2329.60;;;;;;5053228;28;20025;-80
2022/10/19 09:50:28;;;;;;;19.13;11.80;;;359.00;2329.60;;;;;;5054460;28;20028;-79
2022/10/19 09:52:54;;;;;;;20.58;14.35;;;;;;;;;;5053020;28;20033;-78
2022/10/19 09:55:29;;;;;;;19.58;14.02;;;359.30;2329.60;;;;;;5052988;28;20029;-79
2022/10/19 09:58:04;;;;;;;20.33;12.20;;;359.20;2329.60;;;;;;5052619;28;20039;-79
2022/10/19 10:00:55;;;;;;;18.27;11.73;;;384.10;2329.60;;;;;;5054199;28;20025;-78
2022/10/19 10:03:42;;;;;;;16.90;11.45;;;384.10;2329.60;;;;;;5052847;28;20063;-78
2022/10/19 10:06:16;;;;;;;15.32;11.20;;;384.30;2329.60;;;;;;5052823;28;20024;-78
2022/10/19 10:08:57;;;;;;;18.00;12.88;;;384.40;2329.60;;;;;;5054072;28;20100;-79
2022/10/19 10:11:30;;;;;;;21.85;13.00;;;384.50;2329.60;;;;;;5052419;28;20036;-77
2022/10/19 10:13:59;;;;;;;19.30;13.52;;;;;;;;;;5049375;28;20032;-79
2022/10/19 10:16:29;;;;;;;24.98;13.70;;;;;;;;;;5051484;28;20049;-78
2022/10/19 10:18:57;;;;;;;19.27;13.88;;;;;;;;;;5052046;28;20059;-80
2022/10/19 10:21:26;;;;;;;22.08;12.27;;;;;;;;;;5053502;28;20024;-78
2022/10/19 10:23:59;;;;;;;21.92;12.43;;;;;;;;;;5052975;28;20036;-79
2022/10/19 10:26:25;;;;;;;20.80;13.63;;;;;;;;;;5052278;28;20021;-80
2022/10/19 10:28:51;;;;;;;16.52;12.32;;;;;;;;;;5052274;28;20115;-79
2022/10/19 10:31:28;;;;;;;20.48;14.40;;;;;;;;;;5053211;28;20116;-78
2022/10/19 10:33:58;;;;;;;23.10;12.82;;;;;;;;;;5052236;28;20028;-80
2022/10/19 10:36:26;;;;;;;15.38;10.63;;;;;;;;;;5051622;28;20025;-79
2022/10/19 10:38:57;;;;;;;14.65;11.02;;;;;;;;;;5052027;28;20074;-79
2022/10/19 10:41:27;;;;;;;22.08;14.32;;;;;;;;;;5050931;28;20017;-84
2022/10/19 10:43:58;;;;;;;20.42;12.48;;;;;;;;;;5049386;28;20127;-83
2022/10/19 10:46:50;;;;;;;17.25;10.85;;;;;;;;;;5051513;28;20021;-83
2022/10/19 10:52:00;;;;;;;14.80;10.45;;;;;;;;;;5451706;22;20051;-90
2022/10/19 11:03:47;;;;;;;14.70;10.68;;;;;;;;;;5066228;28;20051;-81
2022/10/19 11:06:14;;;;;;;19.75;11.88;;;;;;;;;;5072381;28;20031;-82
2022/10/19 11:09:18;;;;;;;16.23;11.48;;;;;;;;;;5058742;28;20119;-77
2022/10/19 11:11:46;;;;;;;16.52;10.88;;;;;;;;;;5007997;28;20133;-80
2022/10/19 11:14:23;;;;;;;18.80;11.00;;;;;;;;;;4988376;28;20027;-80
2022/10/19 11:16:51;;;;;;;19.67;12.80;;;;;;;;;;5023851;28;20179;-80
2022/10/19 11:19:24;;;;;;;18.67;12.75;;;;;;;;;;5072618;28;20028;-80
2022/10/19 11:21:58;;;;;;;16.25;11.80;;;487.00;2380.80;;;;;;5064353;28;20021;-81
2022/10/19 11:24:28;;;;;;;21.33;11.15;;;;;;;;;;5047845;28;20033;-80
2022/10/19 11:27:03;;;;;;;16.63;10.57;;;;;;;;;;5055137;28;20036;-82
2022/10/19 11:29:42;;;;;;;23.98;12.82;;;;;;;;;;5058301;28;20016;-79
2022/10/19 11:32:38;;;;;;;16.55;9.98;;;;;;;;;;5061469;28;20025;-82
2022/10/19 11:35:16;;;;;;;27.38;10.70;;;512.90;2150.40;;;;;;4998545;28;20030;-82
2022/10/19 11:38:00;;;;;;;16.25;10.23;;;512.80;2124.80;;;;;;5063359;28;20021;-81
2022/10/19 11:40:35;;;;;;;15.85;11.77;;;538.00;2099.20;;;;;;5062675;28;20025;-80
2022/10/19 11:43:05;;;;;;;19.42;11.77;;;;;;;;;;5073316;28;20025;-81
2022/10/19 11:45:39;;;;;;;17.08;9.30;;;;;;;;;;5070007;28;20131;-80
2022/10/19 11:48:08;;;;;;;19.50;9.73;;;563.20;2022.40;;;;;;5066484;28;20044;-81
2022/10/19 11:50:46;;;;;;;18.85;10.25;;;563.20;1996.80;;;;;;5062835;28;20029;-80
2022/10/19 11:53:41;;;;;;;20.23;9.45;;;563.60;1971.20;;;;;;5071681;28;20044;-80
2022/10/19 11:56:45;;;;;;;12.73;9.52;;;563.50;1945.60;;;;;;5049262;28;20025;-80
2022/10/19 11:59:36;;;;;;;13.88;10.65;;;564.00;1971.20;;;;;;5041006;28;20037;-80
2022/10/19 12:02:32;;;;;;;14.80;10.88;;;563.90;1971.20;;;;;;5065818;28;20094;-81
2022/10/19 12:05:09;;;;;;;12.65;10.70;;;;;;;;;;5056054;28;20029;-83
2022/10/19 12:07:41;;;;;;;12.40;9.20;;;;;;;;;;5075531;28;20485;-80
2022/10/19 12:10:17;;;;;;;20.05;12.30;;;;;;;;;;5048368;28;20462;-80
2022/10/19 12:12:48;;;;;;;12.85;9.43;;;589.10;1945.60;;;;;;5071741;28;20017;-81
2022/10/19 12:15:53;;;;;;;12.45;8.85;;;589.10;1894.40;;;;;;5060387;28;20021;-81
2022/10/19 12:18:40;;;;;;;15.38;10.45;;;589.40;1894.40;;;;;;5045675;28;20033;-80
2022/10/19 12:21:16;;;;;;;18.75;14.25;;;589.40;1894.40;;;;;;5073401;28;20027;-81
2022/10/19 12:23:45;;;;;;;18.70;11.50;;;;;;;;;;5068848;28;20032;-81
2022/10/19 12:26:15;;;;;;;17.35;12.52;;;;;;;;;;5039745;28;20473;-80
2022/10/19 12:28:43;;;;;;;19.05;12.50;;;;;;;;;;5058152;28;20020;-80
2022/10/19 12:31:10;;;;;;;16.20;11.68;;;;;;;;;;5059844;28;20024;-81
2022/10/19 12:33:39;;;;;;;18.42;12.18;;;;;;;;;;5075085;28;20017;-80
2022/10/19 12:36:11;;;;;;;19.95;14.15;;;;;;;;;;5075472;28;20016;-80
2022/10/19 12:38:43;;;;;;;26.35;12.77;;;;;;;;;;5057477;28;20024;-81
2022/10/19 12:41:09;;;;;;;16.90;9.80;;;;;;;;;;5056674;28;20027;-80
2022/10/19 12:43:54;;;;;;;25.90;11.88;;;;;;;;;;5057156;28;20029;-79
2022/10/19 12:46:23;;;;;;;19.23;10.18;;;;;;;;;;5054703;28;20476;-82
2022/10/19 12:49:28;;;;;;;15.40;10.63;;;;;;;;;;5057191;28;20119;-80
2022/10/19 12:51:55;;;;;;;23.85;10.48;;;;;;;;;;4988043;28;20137;-80
2022/10/19 12:54:40;;;;;;;12.75;9.93;;;;;;;;;;4977200;28;20043;-80
2022/10/19 12:57:20;;;;;;;12.43;9.35;;;;;;;;;;5031826;28;20024;-80
2022/10/19 12:59:57;;;;;;;13.98;9.05;;;;;;;;;;5059043;28;20380;-82
2022/10/19 13:02:35;;;;;;;18.38;8.93;;;640.00;1792.00;;;;;;5052901;28;20014;-85
2022/10/19 13:05:02;;;;;;;13.05;8.05;;;;;;;;;;5065251;28;20040;-80
2022/10/19 13:07:35;;;;;;;16.85;8.88;;;;;;;;;;5057972;28;20060;-79
2022/10/19 13:10:04;;;;;;;13.60;9.23;;;;;;;;;;5057313;28;20456;-80
2022/10/19 13:12:42;;;;;;;17.13;10.13;;;;;;;;;;5057183;28;20032;-75
2022/10/19 13:15:28;;;;;;;13.82;9.63;;;;;;;;;;5073442;28;20021;-75